Time;durP1;ratioP1;P1;durP2;ratioP2;P2;SDS_P1;SDS_P2;PMS_P1;PMS_P2;Temp;Humidity;BMP_temperature;BMP_pressure;BME280_temperature;BME280_humidity;BME280_pressure;Samples;Min_cycle;Max_cycle;Signal;HPM_P1;HPM_P2
2023/07/04 00:01:22;;;;;;;7.18;1.60;;;15.40;99.90;;;14.64;100.00;97617.00;5046031;28;20445;-78
2023/07/04 00:03:54;;;;;;;6.20;1.48;;;15.40;99.90;;;14.55;100.00;97614.94;5043201;28;20045;-77
2023/07/04 00:06:28;;;;;;;3.20;1.40;;;15.40;99.90;;;14.56;100.00;97619.25;5043621;28;20063;-78
2023/07/04 00:08:56;;;;;;;6.63;1.50;;;15.40;99.90;;;14.54;100.00;97618.47;5027415;28;20076;-78
2023/07/04 00:11:23;;;;;;;4.90;1.60;;;15.40;99.90;;;14.33;100.00;97616.16;5039438;28;20594;-78
2023/07/04 00:13:50;;;;;;;5.50;1.33;;;15.30;99.90;;;14.45;100.00;97617.22;5044566;28;20344;-76
2023/07/04 00:16:19;;;;;;;6.75;1.80;;;15.20;99.90;;;14.17;100.00;97618.78;5042294;28;20790;-76
2023/07/04 00:18:46;;;;;;;4.28;1.50;;;15.10;99.90;;;14.30;100.00;97618.97;5045360;28;20425;-79
2023/07/04 00:21:16;;;;;;;3.03;1.50;;;15.00;99.90;;;14.39;100.00;97614.94;5043335;28;20060;-78
2023/07/04 00:23:47;;;;;;;4.43;1.40;;;15.00;99.90;;;14.25;100.00;97613.13;5042760;28;20044;-78
2023/07/04 00:26:17;;;;;;;4.22;1.23;;;15.00;99.90;;;14.22;100.00;97621.16;5042762;28;20060;-78
2023/07/04 00:28:46;;;;;;;3.65;1.63;;;15.00;99.90;;;14.31;100.00;97618.00;5041216;28;20127;-78
2023/07/04 00:31:19;;;;;;;5.97;1.30;;;15.00;99.90;;;14.25;100.00;97614.91;5042764;28;20060;-77
2023/07/04 00:33:47;;;;;;;5.78;1.50;;;14.90;99.90;;;14.15;100.00;97614.59;5042087;28;20053;-77
2023/07/04 00:36:17;;;;;;;5.05;1.60;;;15.00;99.90;;;14.12;100.00;97613.00;5057463;28;20048;-76
2023/07/04 00:38:56;;;;;;;3.88;1.40;;;15.00;99.90;;;14.05;100.00;97618.63;5044807;28;20076;-77
2023/07/04 00:41:29;;;;;;;2.95;1.52;;;14.90;99.90;;;14.06;100.00;97617.72;5029988;28;20479;-76
2023/07/04 00:44:11;;;;;;;3.42;1.70;;;14.80;99.90;;;14.01;100.00;97621.44;5043686;28;20080;-77
2023/07/04 00:46:54;;;;;;;4.07;1.80;;;14.80;99.90;;;13.98;100.00;97616.38;5041358;28;20045;-77
2023/07/04 00:49:42;;;;;;;4.50;1.70;;;14.70;99.90;;;13.86;100.00;97618.81;5045996;28;20110;-77
2023/07/04 00:52:25;;;;;;;7.13;1.80;;;14.70;99.90;;;13.56;100.00;97630.00;5045988;28;20492;-77
2023/07/04 00:55:01;;;;;;;4.43;1.95;;;14.60;99.90;;;13.71;100.00;97633.56;5046532;28;20076;-78
2023/07/04 00:57:33;;;;;;;4.97;1.70;;;14.50;99.90;;;13.75;100.00;97635.06;5043261;28;20076;-78
2023/07/04 01:00:25;;;;;;;5.03;1.30;;;14.50;99.90;;;13.71;100.00;97638.78;5045511;28;20115;-76
2023/07/04 01:03:20;;;;;;;5.43;2.13;;;14.40;99.90;;;13.63;100.00;97641.78;5045968;28;20076;-78
2023/07/04 01:06:32;;;;;;;6.20;2.47;;;14.30;99.90;;;13.59;100.00;97648.09;5044388;28;20560;-78
2023/07/04 01:09:04;;;;;;;4.63;1.92;;;14.30;99.90;;;13.56;100.00;97651.69;5036383;28;20049;-77
2023/07/04 01:11:42;;;;;;;6.60;1.80;;;14.30;99.90;;;13.55;100.00;97647.41;5045527;28;20114;-78
2023/07/04 01:14:25;;;;;;;4.53;1.88;;;14.20;99.90;;;13.54;100.00;97643.13;5042781;28;20141;-78
2023/07/04 01:16:57;;;;;;;15.77;2.53;;;14.20;99.90;;;13.46;100.00;97650.53;5046306;28;20090;-78
2023/07/04 01:19:35;;;;;;;6.82;2.25;;;14.20;99.90;;;13.35;100.00;97655.47;5041770;28;20521;-78
2023/07/04 01:22:38;;;;;;;5.53;1.83;;;14.10;99.90;;;13.31;100.00;97656.53;5039365;28;20041;-78
2023/07/04 01:25:25;;;;;;;;;;;14.00;99.90;;;13.29;100.00;97666.19;5043196;28;20095;-78
2023/07/04 01:27:59;;;;;;;8.00;2.63;;;13.90;99.90;;;13.10;100.00;97669.72;5041977;28;20397;-78
2023/07/04 01:30:31;;;;;;;8.80;2.75;;;13.80;99.90;;;13.00;100.00;97680.69;5041618;28;20049;-78
2023/07/04 01:33:02;;;;;;;6.82;2.28;;;13.90;99.90;;;12.98;100.00;97680.78;5041833;28;20049;-77
2023/07/04 01:35:33;;;;;;;5.63;2.55;;;13.80;99.90;;;12.98;100.00;97681.63;5042334;28;20067;-78
2023/07/04 01:38:00;;;;;;;4.82;2.45;;;13.80;99.90;;;12.94;100.00;97689.66;5044776;28;20595;-78
2023/07/04 01:40:28;;;;;;;5.22;1.95;;;13.80;99.90;;;12.98;100.00;97689.44;5046279;28;20049;-77
2023/07/04 01:42:55;;;;;;;4.63;2.22;;;13.80;99.90;;;12.83;100.00;97698.00;5028749;28;20049;-78
2023/07/04 01:45:22;;;;;;;3.13;2.03;;;13.80;99.90;;;12.98;100.00;97699.03;5042906;28;20079;-78
2023/07/04 01:47:49;;;;;;;7.38;2.47;;;13.80;99.90;;;12.86;100.00;97704.81;5041600;28;20057;-77
2023/07/04 01:50:16;;;;;;;8.15;2.75;;;13.70;99.90;;;12.72;100.00;97710.72;5012554;28;20048;-77
2023/07/04 01:52:44;;;;;;;3.53;2.17;;;13.70;99.90;;;12.74;100.00;97708.88;5042350;28;20062;-77
2023/07/04 01:55:14;;;;;;;6.93;2.90;;;13.60;99.90;;;12.68;100.00;97710.03;5042394;28;20057;-78
2023/07/04 01:57:42;;;;;;;4.60;2.58;;;13.60;99.90;;;12.73;100.00;97726.28;5044183;28;20087;-78
2023/07/04 02:00:12;;;;;;;6.57;3.33;;;13.50;99.90;;;12.67;100.00;97728.34;5042131;28;20583;-77
2023/07/04 02:02:41;;;;;;;13.02;3.75;;;13.40;99.90;;;12.72;100.00;97732.41;5044338;28;20537;-77
2023/07/04 02:05:09;;;;;;;7.88;3.50;;;13.50;99.90;;;12.79;100.00;97730.34;5041034;28;20061;-77
2023/07/04 02:07:37;;;;;;;7.57;4.18;;;13.40;99.90;;;12.79;100.00;97730.34;5043852;28;20057;-77
2023/07/04 02:10:05;;;;;;;7.22;3.33;;;13.40;99.90;;;12.74;100.00;97743.59;5041508;28;20050;-78
2023/07/04 02:12:32;;;;;;;6.40;3.45;;;13.40;99.90;;;12.84;100.00;97740.53;5044910;28;20045;-77
2023/07/04 02:14:59;;;;;;;6.13;3.50;;;13.40;99.90;;;12.85;100.00;97743.06;5043809;28;20507;-78
2023/07/04 02:17:26;;;;;;;7.05;3.88;;;13.40;99.90;;;12.92;100.00;97746.22;5047219;28;20052;-79
2023/07/04 02:19:54;;;;;;;9.30;5.50;;;13.40;99.90;;;12.75;100.00;97744.44;5048475;28;20110;-78
2023/07/04 02:22:21;;;;;;;7.70;4.85;;;13.50;99.90;;;12.82;100.00;97751.03;5046460;28;20045;-78
2023/07/04 02:24:48;;;;;;;11.27;5.43;;;13.50;99.90;;;12.79;100.00;97748.56;5051591;28;20080;-78
2023/07/04 02:27:19;;;;;;;8.43;5.50;;;13.50;99.90;;;12.81;100.00;97753.72;5050534;28;20530;-77
2023/07/04 02:29:49;;;;;;;7.90;5.20;;;13.50;99.90;;;12.93;100.00;97763.53;5051593;28;20052;-78
2023/07/04 02:32:17;;;;;;;13.65;6.22;;;13.50;99.90;;;12.83;100.00;97755.31;5046770;28;20541;-78
2023/07/04 02:34:44;;;;;;;9.25;5.90;;;13.60;99.90;;;12.82;100.00;97763.19;5047770;28;20548;-78
2023/07/04 02:37:11;;;;;;;10.40;6.20;;;13.60;99.90;;;12.80;100.00;97762.47;5047936;28;20053;-78
2023/07/04 02:39:40;;;;;;;13.20;5.80;;;13.60;99.90;;;12.89;100.00;97751.59;5049187;28;20107;-78
2023/07/04 02:42:07;;;;;;;7.35;4.90;;;13.50;99.90;;;12.87;100.00;97743.84;5051319;28;20091;-78
2023/07/04 02:44:35;;;;;;;9.23;6.00;;;13.50;99.90;;;12.90;100.00;97750.66;5049213;28;20052;-78
2023/07/04 02:47:03;;;;;;;8.77;5.40;;;13.50;99.90;;;12.93;100.00;97750.50;5028947;28;20049;-78
2023/07/04 02:49:30;;;;;;;9.30;5.20;;;13.50;99.90;;;12.96;100.00;97748.59;5048451;28;20059;-77
2023/07/04 02:51:57;;;;;;;10.52;5.93;;;13.50;99.90;;;12.86;100.00;97762.13;5046426;28;20120;-78
2023/07/04 02:54:24;;;;;;;9.27;5.90;;;13.50;99.90;;;12.89;100.00;97757.63;5040442;28;20139;-78
2023/07/04 02:56:52;;;;;;;10.65;6.72;;;13.50;99.90;;;12.90;100.00;97751.50;5045504;28;20139;-77
2023/07/04 02:59:19;;;;;;;14.48;7.70;;;13.50;99.90;;;12.85;100.00;97756.09;5050331;28;20127;-77
2023/07/04 03:01:47;;;;;;;11.57;6.82;;;13.50;99.90;;;12.84;100.00;97756.16;5046556;28;20156;-77
2023/07/04 03:04:14;;;;;;;11.88;8.48;;;13.50;99.90;;;12.82;100.00;97750.19;5046862;28;20057;-78
2023/07/04 03:06:41;;;;;;;15.27;8.50;;;13.50;99.90;;;12.89;100.00;97759.41;5031209;28;20059;-76
2023/07/04 03:09:08;;;;;;;9.52;6.88;;;13.50;99.90;;;12.82;100.00;97758.84;5045493;28;20041;-78
2023/07/04 03:11:36;;;;;;;11.23;7.50;;;13.50;99.90;;;12.88;100.00;97762.91;5049125;28;20056;-77
2023/07/04 03:14:03;;;;;;;16.67;10.07;;;13.50;99.90;;;12.90;100.00;97758.47;5047739;28;20118;-77
2023/07/04 03:16:30;;;;;;;16.65;9.20;;;13.40;99.90;;;12.87;100.00;97762.06;5044330;28;20072;-78
2023/07/04 03:18:57;;;;;;;20.05;10.00;;;13.40;99.90;;;12.86;100.00;97762.97;5046720;28;20048;-76
2023/07/04 03:21:24;;;;;;;15.35;9.95;;;13.40;99.90;;;12.88;100.00;97765.50;5029061;28;20063;-78
2023/07/04 03:23:54;;;;;;;18.02;11.20;;;13.40;99.90;;;12.83;100.00;97767.50;5049670;28;20560;-78
2023/07/04 03:26:22;;;;;;;14.98;9.80;;;13.40;99.90;;;12.89;100.00;97764.63;5046648;28;20203;-77
2023/07/04 03:28:49;;;;;;;20.25;9.88;;;13.40;99.90;;;12.82;100.00;97769.28;5042936;28;20053;-76
2023/07/04 03:31:17;;;;;;;13.05;9.52;;;13.50;99.90;;;12.86;100.00;97767.34;5043049;28;20144;-76
2023/07/04 03:33:44;;;;;;;19.45;10.30;;;13.50;99.90;;;12.76;100.00;97761.75;5016641;28;20049;-77
2023/07/04 03:36:11;;;;;;;15.23;9.52;;;13.50;99.90;;;12.80;100.00;97757.25;5045413;28;20048;-77
2023/07/04 03:38:39;;;;;;;17.65;10.50;;;13.50;99.90;;;12.83;100.00;97757.94;5045659;28;20138;-78
2023/07/04 03:41:06;;;;;;;15.18;9.18;;;13.50;99.90;;;12.90;100.00;97761.91;5045835;28;20502;-77
2023/07/04 03:43:33;;;;;;;13.90;8.65;;;13.50;99.90;;;12.89;100.00;97765.44;5044042;28;20091;-77
2023/07/04 03:46:00;;;;;;;12.68;9.15;;;13.50;99.90;;;12.90;100.00;97761.06;5041300;28;20512;-77
2023/07/04 03:48:27;;;;;;;15.38;8.90;;;13.50;99.90;;;12.92;100.00;97767.91;5050115;28;20106;-77
2023/07/04 03:50:55;;;;;;;15.98;9.32;;;13.50;99.90;;;12.89;100.00;97760.25;5043462;28;20061;-77
2023/07/04 03:53:22;;;;;;;15.88;8.43;;;13.50;99.90;;;12.97;100.00;97759.84;5029592;28;20045;-78
2023/07/04 03:55:50;;;;;;;15.38;8.15;;;13.50;99.90;;;13.01;100.00;97764.00;5038474;28;20053;-77
2023/07/04 03:58:17;;;;;;;12.77;7.70;;;13.50;99.90;;;13.04;100.00;97757.78;5046259;28;20045;-76
2023/07/04 04:00:49;;;;;;;12.20;7.53;;;13.50;99.90;;;12.98;100.00;97766.78;5045747;28;20096;-77
2023/07/04 04:03:16;;;;;;;14.73;8.13;;;13.50;99.90;;;13.00;100.00;97761.47;5043164;28;20072;-78
2023/07/04 04:05:44;;;;;;;14.98;8.82;;;13.40;99.90;;;13.01;100.00;97756.19;5046287;28;20500;-77
2023/07/04 04:08:11;;;;;;;15.57;8.85;;;13.40;99.90;;;13.03;100.00;97762.16;5047066;28;20053;-77
2023/07/04 04:10:40;;;;;;;14.93;8.00;;;13.50;99.90;;;13.11;100.00;97764.38;5030601;28;20522;-77
2023/07/04 04:13:07;;;;;;;13.80;7.13;;;13.50;99.90;;;13.10;100.00;97765.31;5042851;28;20098;-77
2023/07/04 04:15:34;;;;;;;15.23;7.93;;;13.50;99.90;;;12.99;100.00;97771.03;5026945;28;20107;-77
2023/07/04 04:18:02;;;;;;;10.25;5.75;;;13.50;99.90;;;12.98;100.00;97762.41;5044404;28;20140;-77
2023/07/04 04:20:29;;;;;;;12.38;6.88;;;13.50;99.90;;;13.05;100.00;97762.94;5043126;28;20052;-77
2023/07/04 04:22:57;;;;;;;12.23;7.53;;;13.50;99.90;;;13.00;100.00;97764.94;5045450;28;20052;-78
2023/07/04 04:25:24;;;;;;;13.98;7.55;;;13.50;99.90;;;13.09;100.00;97763.59;5044912;28;20056;-76
2023/07/04 04:27:51;;;;;;;11.70;6.55;;;13.50;99.90;;;13.09;100.00;97759.25;5059453;28;20158;-78
2023/07/04 04:30:18;;;;;;;14.20;7.50;;;13.50;99.90;;;13.21;100.00;97762.19;5045299;28;20083;-77
2023/07/04 04:32:45;;;;;;;15.43;7.07;;;13.50;99.90;;;13.32;100.00;97765.09;5027899;28;20586;-77
2023/07/04 04:35:13;;;;;;;11.20;7.30;;;13.50;99.90;;;13.38;100.00;97762.19;5040592;28;20064;-78
2023/07/04 04:37:40;;;;;;;9.70;6.40;;;13.60;99.90;;;13.45;100.00;97763.56;5057379;28;20055;-78
2023/07/04 04:40:09;;;;;;;10.88;6.75;;;13.70;99.90;;;13.60;100.00;97765.38;5041741;28;20049;-78
2023/07/04 04:42:37;;;;;;;9.43;6.70;;;13.70;99.90;;;13.45;100.00;97765.31;5039021;28;20425;-77
2023/07/04 04:45:07;;;;;;;12.32;6.93;;;13.80;99.90;;;13.44;100.00;97761.03;5038529;28;20051;-77
2023/07/04 04:47:36;;;;;;;11.43;6.00;;;13.80;99.90;;;13.41;100.00;97766.41;5040110;28;20045;-78
2023/07/04 04:50:04;;;;;;;10.60;6.28;;;13.90;99.90;;;13.45;100.00;97765.31;5038642;28;20122;-77
2023/07/04 04:52:32;;;;;;;10.15;5.43;;;13.80;99.90;;;13.42;100.00;97763.72;5045366;28;20432;-79
2023/07/04 04:55:02;;;;;;;16.27;5.80;;;13.80;99.90;;;13.35;100.00;97762.34;5042644;28;20084;-79
2023/07/04 04:57:30;;;;;;;12.65;5.70;;;13.80;99.90;;;13.46;100.00;97764.41;5047245;28;20103;-79
2023/07/04 04:59:59;;;;;;;12.73;6.20;;;13.90;99.90;;;13.47;100.00;97769.53;5041496;28;21128;-79
2023/07/04 05:02:31;;;;;;;14.82;6.47;;;14.00;99.90;;;13.51;100.00;97767.63;5043272;28;20049;-80
2023/07/04 05:04:59;;;;;;;13.77;6.07;;;14.00;99.90;;;13.62;100.00;97767.06;5023957;28;20207;-80
2023/07/04 05:07:28;;;;;;;13.35;6.45;;;14.10;99.90;;;13.74;100.00;97767.25;5044655;28;20058;-78
2023/07/04 05:10:00;;;;;;;12.05;5.60;;;14.10;99.90;;;13.90;100.00;97764.69;5059291;28;20200;-79
2023/07/04 05:12:27;;;;;;;9.32;5.28;;;14.10;99.90;;;13.96;100.00;97760.94;5046773;28;20057;-80
2023/07/04 05:14:55;;;;;;;15.55;5.55;;;14.20;99.90;;;13.85;100.00;97761.50;5043884;28;20113;-80
2023/07/04 05:17:23;;;;;;;8.75;5.35;;;14.20;99.90;;;13.99;100.00;97760.75;5046224;28;20142;-80
2023/07/04 05:19:51;;;;;;;8.57;4.85;;;14.30;99.90;;;14.12;100.00;97756.56;5046494;28;20533;-80
2023/07/04 05:22:19;;;;;;;8.73;4.53;;;14.30;99.90;;;14.10;100.00;97758.41;5044380;28;20041;-80
2023/07/04 05:24:47;;;;;;;12.63;5.43;;;14.30;99.90;;;14.27;100.00;97751.44;5045937;28;20048;-79
2023/07/04 05:27:15;;;;;;;11.32;5.20;;;14.30;99.90;;;14.30;100.00;97752.13;5045354;28;20049;-80
2023/07/04 05:29:47;;;;;;;15.43;5.68;;;14.40;99.90;;;14.16;100.00;97746.78;5029481;28;20437;-80
2023/07/04 05:32:14;;;;;;;12.38;4.57;;;14.50;99.90;;;14.26;100.00;97739.31;5043115;28;20080;-80
2023/07/04 05:34:41;;;;;;;10.25;4.97;;;14.50;99.90;;;14.27;100.00;97741.00;5043232;28;20053;-79
2023/07/04 05:37:08;;;;;;;11.13;4.53;;;14.50;99.90;;;14.39;100.00;97738.56;5046851;28;20098;-80
2023/07/04 05:39:35;;;;;;;10.68;5.13;;;14.50;99.90;;;14.35;100.00;97739.66;5045475;28;20053;-80
2023/07/04 05:42:03;;;;;;;15.40;5.18;;;14.60;99.90;;;14.23;100.00;97746.38;5044404;28;20601;-80
2023/07/04 05:44:30;;;;;;;11.20;5.25;;;14.60;99.90;;;14.24;100.00;97744.63;5029547;28;20456;-79
2023/07/04 05:46:57;;;;;;;14.25;5.63;;;14.60;99.90;;;14.36;100.00;97743.09;5046262;28;20045;-79
2023/07/04 05:49:24;;;;;;;9.35;5.55;;;14.70;99.90;;;14.60;100.00;97735.69;5046751;28;20045;-80
2023/07/04 05:51:52;;;;;;;11.70;6.53;;;14.80;99.90;;;14.66;100.00;97734.50;5039496;28;20465;-80
2023/07/04 05:54:19;;;;;;;11.38;5.18;;;14.90;99.90;;;14.63;100.00;97728.50;5029654;28;20056;-80
2023/07/04 05:56:52;;;;;;;13.95;5.82;;;15.00;99.90;;;14.84;100.00;97725.59;5051249;28;20072;-80
2023/07/04 05:59:19;;;;;;;;;;;15.00;99.90;;;14.77;100.00;97712.06;5050082;28;20574;-79
2023/07/04 06:01:47;;;;;;;11.63;3.92;;;15.10;99.90;;;15.01;100.00;97719.44;5032706;28;19929;-80
2023/07/04 06:04:14;;;;;;;10.35;4.75;;;15.30;99.90;;;15.00;100.00;97712.50;5046005;28;20124;-80
2023/07/04 06:06:51;;;;;;;9.95;5.18;;;15.40;99.90;;;15.04;100.00;97703.56;5047200;28;20129;-80
2023/07/04 06:09:20;;;;;;;11.35;5.03;;;15.40;99.90;;;15.23;100.00;97703.28;5047651;28;20045;-80
2023/07/04 06:11:48;;;;;;;11.52;5.18;;;15.60;99.90;;;15.37;100.00;97700.72;5031101;28;20496;-80
2023/07/04 06:14:37;;;;;;;10.85;5.28;;;15.80;99.90;;;15.26;100.00;97690.91;5032938;28;20049;-77
2023/07/04 06:17:04;;;;;;;14.35;5.30;;;15.90;99.90;;;15.26;100.00;97680.44;5042535;28;20141;-80
2023/07/04 06:19:32;;;;;;;11.55;5.00;;;15.80;99.90;;;15.58;100.00;97676.81;5028314;28;20159;-80
2023/07/04 06:22:02;;;;;;;12.30;4.40;;;16.00;99.90;;;15.98;100.00;97658.66;5008548;28;20080;-79
2023/07/04 06:24:29;;;;;;;9.63;3.85;;;16.20;99.90;;;15.67;100.00;97657.94;5045201;28;20049;-79
2023/07/04 06:26:56;;;;;;;17.42;4.57;;;16.20;99.90;;;15.69;100.00;97649.03;5050663;28;20417;-80
2023/07/04 06:29:24;;;;;;;11.43;4.22;;;16.10;99.90;;;15.67;100.00;97643.06;5047371;28;20118;-77
2023/07/04 06:31:51;;;;;;;13.18;4.53;;;16.10;99.90;;;15.84;100.00;97639.41;5043905;28;20122;-80
2023/07/04 06:34:21;;;;;;;9.07;3.88;;;16.00;99.90;;;15.86;100.00;97637.53;5048319;28;20057;-80
2023/07/04 06:36:49;;;;;;;18.73;4.35;;;16.00;99.90;;;15.85;100.00;97632.38;5046135;28;20071;-80
2023/07/04 06:39:18;;;;;;;12.48;4.60;;;16.20;99.90;;;16.02;100.00;97637.41;5048632;28;20049;-80
2023/07/04 06:41:45;;;;;;;9.85;3.97;;;16.40;99.90;;;16.02;100.00;97633.97;5045484;28;20056;-79
2023/07/04 06:44:14;;;;;;;10.55;4.13;;;16.60;99.90;;;16.16;100.00;97631.28;5044427;28;20327;-81
2023/07/04 06:46:42;;;;;;;13.65;4.30;;;16.70;99.90;;;16.56;100.00;97630.47;5049694;28;20045;-78
2023/07/04 06:49:09;;;;;;;10.95;4.05;;;16.90;99.90;;;16.91;100.00;97622.91;5048904;28;20040;-80
2023/07/04 06:51:36;;;;;;;12.40;4.10;;;17.20;99.90;;;16.52;100.00;97622.81;5046321;28;20498;-78
2023/07/04 06:54:03;;;;;;;9.45;3.53;;;17.10;99.90;;;16.58;100.00;97626.81;5044534;28;20521;-80
2023/07/04 06:56:31;;;;;;;12.13;4.20;;;17.10;99.90;;;16.30;100.00;97620.75;5044973;28;20518;-78
2023/07/04 06:58:58;;;;;;;16.98;4.60;;;17.10;99.90;;;16.54;100.00;97624.50;5043008;28;20456;-78
2023/07/04 07:01:29;;;;;;;15.13;4.35;;;17.10;99.90;;;16.83;100.00;97622.56;5047410;28;20136;-78
2023/07/04 07:03:57;;;;;;;11.32;3.47;;;17.20;99.90;;;16.97;100.00;97622.50;5044909;28;20571;-77
2023/07/04 07:06:27;;;;;;;18.77;4.55;;;17.10;99.90;;;16.88;100.00;97616.09;5047054;28;20055;-80
2023/07/04 07:08:54;;;;;;;10.80;4.05;;;17.00;99.90;;;16.54;100.00;97608.78;5031271;28;20378;-78
2023/07/04 07:11:22;;;;;;;11.25;3.67;;;17.10;99.90;;;16.84;100.00;97609.38;5043475;28;20093;-77
2023/07/04 07:13:50;;;;;;;8.77;3.40;;;17.00;99.90;;;16.81;100.00;97604.34;5048570;28;20056;-77
2023/07/04 07:16:24;;;;;;;12.52;3.75;;;17.00;99.90;;;16.79;100.00;97603.59;5049180;28;20052;-77
2023/07/04 07:18:53;;;;;;;11.43;3.75;;;17.30;99.90;;;16.72;100.00;97603.16;5045563;28;20049;-78
2023/07/04 07:21:24;;;;;;;13.75;3.30;;;17.10;99.90;;;17.20;100.00;97607.81;5048541;28;20037;-78
2023/07/04 07:23:53;;;;;;;8.85;2.70;;;17.20;99.90;;;17.36;100.00;97591.84;5044835;28;21592;-80
2023/07/04 07:26:27;;;;;;;13.18;3.42;;;17.60;99.90;;;17.34;100.00;97601.59;5031648;28;20425;-80
2023/07/04 07:28:57;;;;;;;10.18;3.33;;;17.70;99.90;;;17.43;100.00;97598.34;5044848;28;20052;-79
2023/07/04 07:31:27;;;;;;;10.13;3.53;;;18.00;99.90;;;17.68;100.00;97605.31;5039934;28;20429;-78
2023/07/04 07:34:02;;;;;;;12.63;3.15;;;18.10;99.90;;;17.39;100.00;97601.28;5045835;28;20135;-79
2023/07/04 07:36:39;;;;;;;9.48;2.97;;;18.00;99.90;;;17.42;100.00;97615.00;5049951;28;20056;-78
2023/07/04 07:39:10;;;;;;;10.65;3.58;;;17.70;99.90;;;17.68;100.00;97602.69;5049413;28;20075;-77
2023/07/04 07:41:44;;;;;;;12.75;3.05;;;17.80;99.90;;;17.88;100.00;97605.69;5014095;28;20180;-80
2023/07/04 07:44:13;;;;;;;9.68;2.70;;;17.80;99.90;;;18.08;100.00;97601.63;5047812;28;20053;-78
2023/07/04 07:46:43;;;;;;;8.70;3.00;;;17.80;99.90;;;17.74;100.00;97604.91;5042947;28;20128;-80
2023/07/04 07:49:11;;;;;;;6.63;2.03;;;17.90;99.90;;;17.99;100.00;97613.66;5041888;28;20047;-79
2023/07/04 07:51:39;;;;;;;7.20;2.63;;;17.80;99.90;;;18.04;100.00;97611.56;5048295;28;20134;-78
2023/07/04 07:54:06;;;;;;;10.63;2.88;;;18.00;99.90;;;17.76;100.00;97610.00;5048455;28;20135;-79
2023/07/04 07:56:44;;;;;;;9.63;2.50;;;17.90;99.90;;;18.09;100.00;97608.59;5047731;28;20581;-79
2023/07/04 07:59:12;;;;;;;10.50;3.15;;;18.00;99.90;;;18.27;100.00;97604.63;5030052;28;20131;-79
2023/07/04 08:01:40;;;;;;;11.48;2.72;;;18.20;99.90;;;18.15;100.00;97605.50;5049382;28;20061;-79
2023/07/04 08:04:07;;;;;;;8.57;2.80;;;18.30;99.90;;;18.00;100.00;97610.09;5045127;28;20076;-79
2023/07/04 08:06:41;;;;;;;40.97;5.47;;;18.30;99.90;;;18.42;100.00;97607.06;5031420;28;20045;-79
2023/07/04 08:09:13;;;;;;;13.63;3.17;;;18.30;99.90;;;18.60;100.00;97606.50;5065387;28;20084;-79
2023/07/04 08:11:42;;;;;;;7.97;2.90;;;18.50;99.90;;;18.81;100.00;97604.09;5045082;28;20061;-78
2023/07/04 08:14:10;;;;;;;6.63;2.45;;;18.90;99.90;;;19.27;100.00;97612.06;5044622;28;20658;-78
2023/07/04 08:16:48;;;;;;;8.23;2.35;;;18.80;99.90;;;18.94;100.00;97605.81;5046028;28;20075;-79
2023/07/04 08:19:18;;;;;;;9.70;2.75;;;19.00;99.90;;;19.38;100.00;97602.34;5043495;28;20041;-79
2023/07/04 08:21:46;;;;;;;8.77;2.55;;;19.50;99.90;;;19.59;100.00;97599.88;5043563;28;20055;-79
2023/07/04 08:24:14;;;;;;;7.97;2.45;;;19.70;99.90;;;18.94;100.00;97608.44;5040547;28;20050;-79
2023/07/04 08:26:45;;;;;;;7.93;2.38;;;19.70;99.90;;;19.11;100.00;97607.13;5048170;28;20072;-78
2023/07/04 08:29:14;;;;;;;11.27;2.58;;;19.40;99.90;;;19.44;100.00;97591.38;5046727;28;20102;-79
2023/07/04 08:31:41;;;;;;;9.20;2.75;;;19.60;99.90;;;19.58;100.00;97595.53;5042283;28;20057;-79
2023/07/04 08:34:10;;;;;;;9.18;2.78;;;19.80;99.90;;;19.56;100.00;97597.44;5043712;28;20052;-79
2023/07/04 08:36:39;;;;;;;8.13;2.80;;;19.90;99.90;;;18.95;100.00;97592.56;5045878;28;20056;-79
2023/07/04 08:39:09;;;;;;;9.43;2.70;;;19.60;99.90;;;19.32;100.00;97604.66;5059966;28;20049;-79
2023/07/04 08:41:59;;;;;;;7.88;2.47;;;19.70;99.90;;;19.63;100.00;97596.00;5042810;28;20045;-79
2023/07/04 08:44:49;;;;;;;10.13;2.22;;;19.90;99.90;;;19.29;100.00;97589.09;5005940;28;20099;-79
2023/07/04 08:47:26;;;;;;;7.55;2.28;;;19.60;99.90;;;19.83;100.00;97591.81;5030789;28;20047;-78
2023/07/04 08:50:13;;;;;;;8.45;2.38;;;19.50;99.90;;;20.29;100.00;97581.97;5044689;28;20055;-77
2023/07/04 08:53:05;;;;;;;6.43;2.55;;;19.60;99.90;;;19.98;100.00;97589.78;5046606;28;20112;-78
2023/07/04 08:55:42;;;;;;;9.93;2.47;;;20.00;99.90;;;20.55;100.00;97594.81;5039836;28;20569;-79
2023/07/04 08:58:10;;;;;;;6.60;2.28;;;19.90;99.90;;;20.68;100.00;97583.13;5046084;28;20616;-80
2023/07/04 09:00:42;;;;;;;6.60;2.25;;;20.30;99.90;;;21.04;100.00;97580.16;5046201;28;20057;-80
2023/07/04 09:03:25;;;;;;;6.78;2.55;;;20.60;99.90;;;20.96;100.00;97580.84;5025600;28;20098;-79
2023/07/04 09:06:04;;;;;;;10.00;2.33;;;20.80;99.90;;;20.83;100.00;97583.66;5043159;28;20045;-79
2023/07/04 09:08:48;;;;;;;5.40;2.08;;;21.20;99.90;;;21.29;100.00;97581.53;5043596;28;20103;-79
2023/07/04 09:11:16;;;;;;;5.82;2.38;;;20.70;98.60;;;21.00;100.00;97582.22;5040398;28;20099;-78
2023/07/04 09:13:53;;;;;;;7.85;2.55;;;20.60;99.20;;;20.69;100.00;97599.81;5043532;28;20102;-78
2023/07/04 09:16:48;;;;;;;5.80;1.88;;;21.00;99.10;;;20.89;100.00;97588.44;5043651;28;20650;-78
2023/07/04 09:19:20;;;;;;;6.72;2.25;;;21.00;99.10;;;20.61;100.00;97589.06;5042989;28;20234;-78
2023/07/04 09:21:48;;;;;;;9.55;2.38;;;;;;;21.55;100.00;97584.59;5045941;28;20053;-78
2023/07/04 09:24:15;;;;;;;6.55;2.17;;;21.60;99.90;;;21.86;100.00;97585.38;5045252;28;20136;-78
2023/07/04 09:26:45;;;;;;;9.65;2.85;;;22.20;97.30;;;21.52;100.00;97588.31;5045008;28;20538;-79
2023/07/04 09:29:19;;;;;;;6.53;2.35;;;22.20;96.90;;;21.68;100.00;97597.56;5045150;28;20124;-77
2023/07/04 09:31:53;;;;;;;8.02;2.08;;;22.20;95.00;;;22.20;100.00;97584.19;5047536;28;20056;-77
2023/07/04 09:34:29;;;;;;;8.02;2.40;;;22.30;95.60;;;22.71;100.00;97589.19;5049158;28;20095;-77
2023/07/04 09:37:01;;;;;;;5.03;2.30;;;22.60;94.60;;;22.54;100.00;97574.03;5049590;28;20080;-78
2023/07/04 09:39:57;;;;;;;6.18;2.33;;;23.00;93.70;;;22.47;100.00;97581.72;5032313;28;20057;-78
2023/07/04 09:42:45;;;;;;;5.90;2.90;;;22.80;92.30;;;21.19;100.00;97592.06;5045240;28;20075;-76
2023/07/04 09:45:22;;;;;;;5.00;2.38;;;22.50;91.10;;;21.81;100.00;97587.59;5050294;28;20038;-78
2023/07/04 09:47:51;;;;;;;6.95;2.40;;;22.00;91.30;;;22.55;100.00;97583.63;5050770;28;20060;-78
2023/07/04 09:50:29;;;;;;;5.72;2.60;;;22.60;92.00;;;22.92;100.00;97575.81;5034737;28;20133;-78
2023/07/04 09:53:18;;;;;;;6.88;2.35;;;23.00;91.50;;;22.98;99.93;97577.03;5046677;28;20107;-78
2023/07/04 09:56:01;;;;;;;6.60;2.35;;;23.40;90.40;;;22.83;95.03;97586.38;5051199;28;20421;-78
2023/07/04 09:58:29;;;;;;;5.18;2.60;;;23.10;88.80;;;23.22;99.76;97583.66;5047321;28;20056;-78
2023/07/04 10:01:15;;;;;;;5.25;2.40;;;23.10;90.20;;;23.91;100.00;97571.81;5047287;28;20052;-78
2023/07/04 10:03:45;;;;;;;6.22;2.22;;;23.60;90.40;;;23.70;97.04;97580.00;5031284;28;20063;-78
2023/07/04 10:06:29;;;;;;;6.40;2.92;;;24.10;89.50;;;23.31;91.38;97575.72;5033861;28;20055;-78
2023/07/04 10:08:57;;;;;;;7.25;2.75;;;23.60;85.80;;;23.52;91.13;97577.28;5033614;28;20045;-78
2023/07/04 10:11:32;;;;;;;8.48;2.22;;;23.20;85.70;;;23.15;94.10;97573.69;5042211;28;20118;-78
2023/07/04 10:14:08;;;;;;;5.25;2.28;;;23.00;88.20;;;23.35;93.08;97586.81;5050986;28;20152;-78
2023/07/04 10:16:44;;;;;;;7.65;2.60;;;23.00;88.50;;;22.81;94.98;97569.81;5033541;28;20121;-79
2023/07/04 10:19:20;;;;;;;6.28;2.50;;;23.00;87.70;;;23.47;98.89;97577.72;5050272;28;20463;-79
2023/07/04 10:21:51;;;;;;;10.13;3.00;;;23.70;88.40;;;23.64;96.57;97576.09;5049398;28;20582;-79
2023/07/04 10:24:26;;;;;;;4.82;1.92;;;24.00;87.80;;;24.74;94.35;97567.09;5051550;28;20053;-80
2023/07/04 10:27:01;;;;;;;7.85;2.45;;;24.20;87.20;;;24.25;99.54;97563.19;5031201;28;20524;-79